Portada
METAR-TAF:

METAR-TAF

Aeroports :

Ubon Ratchathani, Tailàndia

latitud: 15-15N, longitud: 104-52E, altitud: 123 m

Observació

L'informe es va fer fa 1 hora i 4 minuts, a les 02:00 UTC
Vent 4 kt del Sud, variant entre Est i Oest/Sud-Oest
Temperatura 31°C
Humitat 71%
Pressió 1010 hPa
Visibilitat 10 km o més
Escasses núvols a una alçada de 3000 ft

METAR: VTUU 240200Z 17004KT 090V240 9999 FEW030 31/25 Q1010 NOSIG

Hora: 10:04 (03:04 UTC)

Pronòstic

L'informe es va fer fa 4 hores i 4 minuts, a les 23:00 UTC
Pronòstic vàlid del 24 a les 00 UTC al 24 a les 24 UTC
Vent 5 kt del Sud/Sud-Oest
Visibilitat: 8000 m
Escasses núvols a una alçada de 3000 ft

TAF: VTUU 232300Z 2400/2424 20005KT 8000 FEW030

Observacions i pronòstics meteorològics de més de 4000 aeroports (METAR i TAF).

Les estacions disponibles són els punts grocs i vermells al mapa.

Posi el ratolí al punt desitjat per veure el nom de l'estació.

Feu clic per veure les observacions i els pronòstics meteorològics.

Per canviar el mapa: feu clic els botons verds amb una creu de color negre per apropar; al botó verd amb un guió per allunyar la imatge; o en les fletxes verdes per a mapes adjacents.


METAR-TAF: